createdAt,value
2022-08-19T00:00:17.072Z,92483.94
2022-08-19T00:02:50.419Z,92486.09
2022-08-19T00:05:21.744Z,92487.06
2022-08-19T00:07:52.822Z,92477.34
2022-08-19T00:10:25.348Z,92483.63
2022-08-19T00:12:56.998Z,92483.13
2022-08-19T00:15:26.885Z,92477.19
2022-08-19T00:17:58.022Z,92477.50
2022-08-19T00:20:28.430Z,92477.50
2022-08-19T00:22:58.940Z,92482.59
2022-08-19T00:25:29.969Z,92484.09
2022-08-19T00:28:02.551Z,92485.91
2022-08-19T00:30:33.041Z,92475.88
2022-08-19T00:33:03.422Z,92474.69
2022-08-19T00:35:33.380Z,92476.19
2022-08-19T00:38:03.503Z,92469.75
2022-08-19T00:40:33.441Z,92466.94
2022-08-19T00:43:10.220Z,92466.13
2022-08-19T00:45:42.730Z,92463.81
2022-08-19T00:48:14.812Z,92468.06
2022-08-19T00:52:46.771Z,92465.31
2022-08-19T00:55:21.050Z,92463.47
2022-08-19T00:57:57.024Z,92470.06
2022-08-19T01:00:30.179Z,92464.28
2022-08-19T01:03:00.323Z,92471.56
2022-08-19T01:05:32.703Z,92466.94
2022-08-19T01:08:05.718Z,92473.03
2022-08-19T01:10:40.561Z,92473.03
2022-08-19T01:13:10.679Z,92467.72
2022-08-19T01:15:48.046Z,92462.06
2022-08-19T01:18:20.746Z,92462.06
2022-08-19T01:20:51.923Z,92468.34
2022-08-19T01:23:44.164Z,92464.19
2022-08-19T01:26:18.121Z,92463.25
2022-08-19T01:29:00.713Z,92463.03
2022-08-19T01:31:33.287Z,92468.81
2022-08-19T01:34:05.620Z,92474.28
2022-08-19T01:36:43.132Z,92473.06
2022-08-19T01:39:18.684Z,92476.72
2022-08-19T01:41:49.199Z,92483.47
2022-08-19T01:44:21.704Z,92478.34
2022-08-19T01:46:52.958Z,92482.28
2022-08-19T01:49:25.808Z,92482.47
2022-08-19T01:51:57.063Z,92476.69
2022-08-19T01:54:28.640Z,92478.97
2022-08-19T01:57:05.040Z,92488.22
2022-08-19T01:59:37.746Z,92485.22
2022-08-19T02:02:09.842Z,92489.69
2022-08-19T02:04:40.452Z,92489.50
2022-08-19T02:07:10.766Z,92500.38
2022-08-19T02:09:42.243Z,92485.53
2022-08-19T02:12:12.393Z,92490.00
2022-08-19T02:14:42.368Z,92493.75
2022-08-19T02:17:12.639Z,92500.53
2022-08-19T02:19:43.260Z,92497.72
2022-08-19T02:22:13.322Z,92492.78
2022-08-19T02:24:44.773Z,92492.63
2022-08-19T02:27:14.763Z,92496.09
2022-08-19T02:29:45.081Z,92493.44
2022-08-19T02:32:14.985Z,92496.56
2022-08-19T02:34:45.200Z,92483.91
2022-08-19T02:37:28.943Z,92483.91
2022-08-19T02:40:00.945Z,92495.44
2022-08-19T02:42:31.623Z,92497.22
2022-08-19T02:45:01.754Z,92495.88
2022-08-19T02:47:31.843Z,92502.00
2022-08-19T02:50:02.945Z,92495.56
2022-08-19T02:52:33.583Z,92496.41
2022-08-19T02:55:05.603Z,92508.59
2022-08-19T02:57:37.163Z,92504.94
2022-08-19T03:00:10.519Z,92508.56
2022-08-19T03:02:40.364Z,92512.38
2022-08-19T03:05:12.569Z,92509.53
2022-08-19T03:07:42.541Z,92515.66
2022-08-19T03:10:13.951Z,92520.91
2022-08-19T03:12:43.904Z,92518.94
2022-08-19T03:15:13.996Z,92513.19
2022-08-19T03:17:43.976Z,92519.16
2022-08-19T03:20:14.634Z,92521.28
2022-08-19T03:22:44.494Z,92529.00
2022-08-19T03:25:16.836Z,92533.97
2022-08-19T03:27:50.298Z,92535.06
2022-08-19T03:30:23.273Z,92525.47
2022-08-19T03:32:57.234Z,92537.34
2022-08-19T03:35:27.603Z,92535.53
2022-08-19T03:37:57.730Z,92539.72
2022-08-19T03:40:31.241Z,92540.56
2022-08-19T03:43:01.378Z,92542.38
2022-08-19T03:45:31.553Z,92545.69
2022-08-19T03:48:01.825Z,92543.72
2022-08-19T03:53:39.203Z,92546.53
2022-08-19T03:56:14.290Z,92552.16
2022-08-19T03:58:45.959Z,92547.56
2022-08-19T04:01:19.033Z,92549.72
2022-08-19T04:03:49.404Z,92550.06
2022-08-19T04:06:22.468Z,92551.72
2022-08-19T04:08:56.358Z,92548.50
2022-08-19T04:11:43.700Z,92542.06
2022-08-19T04:14:19.180Z,92545.50
2022-08-19T04:16:50.341Z,92535.97
2022-08-19T04:19:22.064Z,92534.47
2022-08-19T04:21:54.761Z,92541.78
2022-08-19T04:24:27.288Z,92550.53
2022-08-19T04:26:57.322Z,92541.97
2022-08-19T04:29:28.700Z,92542.97
2022-08-19T04:32:00.360Z,92542.66
2022-08-19T04:35:02.355Z,92539.53
2022-08-19T04:37:35.355Z,92548.09
2022-08-19T04:40:27.867Z,92543.00
2022-08-19T04:42:57.743Z,92545.34
2022-08-19T04:45:27.525Z,92540.41
2022-08-19T04:48:26.877Z,92536.06
2022-08-19T04:50:50.812Z,92536.66
2022-08-19T04:53:20.894Z,92540.09
2022-08-19T04:55:52.541Z,92549.59
2022-08-19T04:58:22.500Z,92532.69
2022-08-19T05:00:52.427Z,92534.59
2022-08-19T05:03:25.594Z,92533.78
2022-08-19T05:05:59.242Z,92533.31
2022-08-19T05:08:32.343Z,92538.97
2022-08-19T05:11:04.239Z,92533.03
2022-08-19T05:13:34.189Z,92532.69
2022-08-19T05:16:04.141Z,92539.03
2022-08-19T05:18:51.101Z,92532.91
2022-08-19T05:21:40.091Z,92536.94
2022-08-19T05:24:10.644Z,92544.13
2022-08-19T05:26:44.199Z,92540.25
2022-08-19T05:29:14.261Z,92534.06
2022-08-19T05:31:44.601Z,92537.13
2022-08-19T05:34:20.268Z,92534.78
2022-08-19T05:36:58.425Z,92535.63
2022-08-19T05:39:31.467Z,92534.59
2022-08-19T05:42:07.204Z,92537.25
2022-08-19T05:44:40.784Z,92533.19
2022-08-19T05:47:11.384Z,92534.66
2022-08-19T05:49:41.840Z,92535.28
2022-08-19T05:52:18.634Z,92545.81
2022-08-19T05:54:52.500Z,92539.91
2022-08-19T05:57:24.042Z,92544.09
2022-08-19T05:59:58.563Z,92540.63
2022-08-19T06:02:29.100Z,92547.97
2022-08-19T06:04:58.967Z,92539.94
2022-08-19T06:07:30.117Z,92553.88
2022-08-19T06:10:01.344Z,92547.84
2022-08-19T06:12:36.246Z,92553.94
2022-08-19T06:15:11.161Z,92542.91
2022-08-19T06:17:41.962Z,92558.00
2022-08-19T06:20:15.385Z,92554.19
2022-08-19T06:22:52.681Z,92552.50
2022-08-19T06:25:22.842Z,92547.88
2022-08-19T06:28:13.931Z,92548.41
2022-08-19T06:30:44.068Z,92549.53
2022-08-19T06:33:14.045Z,92553.59
2022-08-19T06:38:20.802Z,92559.66
2022-08-19T06:40:50.851Z,92558.72
2022-08-19T06:43:23.947Z,92558.22
2022-08-19T06:46:00.384Z,92554.50
2022-08-19T06:48:31.355Z,92555.84
2022-08-19T06:53:39.671Z,92559.25
2022-08-19T06:56:09.936Z,92565.16
2022-08-19T06:58:39.865Z,92560.69
2022-08-19T07:01:10.692Z,92560.91
2022-08-19T07:03:42.265Z,92568.41
2022-08-19T07:06:43.092Z,92562.78
2022-08-19T07:09:12.483Z,92564.97
2022-08-19T07:11:45.883Z,92566.97
2022-08-19T07:14:19.993Z,92573.28
2022-08-19T07:16:52.784Z,92572.88
2022-08-19T07:19:23.683Z,92568.59
2022-08-19T07:21:55.325Z,92574.00
2022-08-19T07:24:30.264Z,92570.75
2022-08-19T07:27:15.082Z,92576.34
2022-08-19T07:29:45.981Z,92584.31
2022-08-19T07:32:27.833Z,92574.16
2022-08-19T07:34:58.040Z,92573.72
2022-08-19T07:37:33.178Z,92575.47
2022-08-19T07:40:09.347Z,92572.91
2022-08-19T07:42:39.327Z,92568.81
2022-08-19T07:45:11.341Z,92567.50
2022-08-19T07:47:49.585Z,92569.25
2022-08-19T07:50:22.922Z,92570.31
2022-08-19T07:52:53.663Z,92573.00
2022-08-19T07:55:41.655Z,92566.69
2022-08-19T07:58:16.320Z,92568.16
2022-08-19T08:00:48.173Z,92561.81
2022-08-19T08:03:21.983Z,92565.66
2022-08-19T08:06:09.122Z,92561.19
2022-08-19T08:08:56.503Z,92563.06
2022-08-19T08:11:29.662Z,92562.91
2022-08-19T08:14:01.234Z,92562.97
2022-08-19T08:16:39.683Z,92569.22
2022-08-19T08:19:25.456Z,92561.06
2022-08-19T08:21:57.281Z,92567.66
2022-08-19T08:24:28.659Z,92569.44
2022-08-19T08:27:01.745Z,92575.59
2022-08-19T08:29:34.889Z,92568.03
2022-08-19T08:32:14.169Z,92572.91
2022-08-19T08:34:45.184Z,92567.22
2022-08-19T08:37:20.104Z,92567.94
2022-08-19T08:39:49.978Z,92569.44
2022-08-19T08:42:37.704Z,92565.50
2022-08-19T08:45:16.239Z,92563.28
2022-08-19T08:47:50.514Z,92569.41
2022-08-19T08:50:28.765Z,92568.88
2022-08-19T08:53:01.004Z,92559.44
2022-08-19T08:55:36.920Z,92557.28
2022-08-19T08:58:17.182Z,92560.34
2022-08-19T09:00:51.284Z,92570.91
2022-08-19T09:03:24.859Z,92561.50
2022-08-19T09:06:03.511Z,92571.13
2022-08-19T09:08:46.106Z,92555.31
2022-08-19T09:11:42.797Z,92562.22
2022-08-19T09:14:49.811Z,92558.81
2022-08-19T09:17:21.684Z,92564.34
2022-08-19T09:19:56.013Z,92556.34
2022-08-19T09:22:28.193Z,92560.94
2022-08-19T09:24:58.886Z,92558.69
2022-08-19T09:27:42.820Z,92558.91
2022-08-19T09:30:20.184Z,92553.28
2022-08-19T09:32:52.800Z,92551.75
2022-08-19T09:35:24.740Z,92541.25
2022-08-19T09:37:57.605Z,92539.63
2022-08-19T09:40:32.649Z,92529.06
2022-08-19T09:43:12.998Z,92531.41
2022-08-19T09:45:45.508Z,92533.22
2022-08-19T09:48:18.894Z,92529.75
2022-08-19T09:53:38.121Z,92525.78
2022-08-19T09:56:10.644Z,92536.16
2022-08-19T09:58:40.900Z,92525.09
2022-08-19T10:01:12.029Z,92533.03
2022-08-19T10:03:42.011Z,92524.22
2022-08-19T10:06:14.962Z,92522.34
2022-08-19T10:08:50.711Z,92506.63
2022-08-19T10:11:28.587Z,92517.41
2022-08-19T10:14:08.305Z,92509.47
2022-08-19T10:16:40.508Z,92513.59
2022-08-19T10:19:10.764Z,92506.19
2022-08-19T10:21:41.560Z,92516.50
2022-08-19T10:24:13.102Z,92509.59
2022-08-19T10:26:46.502Z,92504.19
2022-08-19T10:29:32.969Z,92517.38
2022-08-19T10:32:04.184Z,92514.41
2022-08-19T10:34:35.043Z,92512.84
2022-08-19T10:37:06.087Z,92512.78
2022-08-19T10:39:43.083Z,92507.66
2022-08-19T10:42:14.581Z,92510.91
2022-08-19T10:44:45.362Z,92501.19
2022-08-19T10:47:17.322Z,92507.53
2022-08-19T10:50:13.440Z,92506.16
2022-08-19T10:52:49.118Z,92512.50
2022-08-19T10:55:41.751Z,92502.72
2022-08-19T10:58:18.029Z,92505.94
2022-08-19T11:00:56.024Z,92497.91
2022-08-19T11:03:29.019Z,92496.50
2022-08-19T11:06:03.307Z,92492.50
2022-08-19T11:08:33.473Z,92488.84
2022-08-19T11:11:06.587Z,92484.28
2022-08-19T11:13:38.892Z,92497.50
2022-08-19T11:16:12.782Z,92484.69
2022-08-19T11:18:45.620Z,92490.56
2022-08-19T11:21:20.629Z,92483.13
2022-08-19T11:23:52.862Z,92487.00
2022-08-19T11:26:25.624Z,92496.13
2022-08-19T11:28:56.601Z,92486.59
2022-08-19T11:31:29.464Z,92479.50
2022-08-19T11:34:00.922Z,92479.50
2022-08-19T11:36:31.778Z,92480.78
2022-08-19T11:39:02.081Z,92478.00
2022-08-19T11:41:33.471Z,92473.16
2022-08-19T11:44:04.411Z,92472.59
2022-08-19T11:46:35.362Z,92471.31
2022-08-19T11:49:09.577Z,92474.66
2022-08-19T11:51:43.365Z,92464.81
2022-08-19T11:54:13.003Z,92466.63
2022-08-19T11:56:45.006Z,92465.50
2022-08-19T11:59:15.084Z,92463.97
2022-08-19T12:01:45.120Z,92468.47
2022-08-19T12:04:15.692Z,92465.47
2022-08-19T12:06:48.542Z,92461.25
2022-08-19T12:09:19.025Z,92469.81
2022-08-19T12:11:50.421Z,92458.59
2022-08-19T12:14:20.461Z,92459.41
2022-08-19T12:16:52.109Z,92456.09
2022-08-19T12:19:22.840Z,92446.06
2022-08-19T12:21:54.393Z,92447.78
2022-08-19T12:24:24.598Z,92453.19
2022-08-19T12:26:56.670Z,92451.06
2022-08-19T12:29:32.042Z,92451.78
2022-08-19T12:32:03.910Z,92453.75
2022-08-19T12:34:35.509Z,92443.78
2022-08-19T12:37:07.942Z,92440.03
2022-08-19T12:39:44.025Z,92448.19
2022-08-19T12:42:17.061Z,92441.38
2022-08-19T12:44:47.743Z,92447.72
2022-08-19T12:47:19.624Z,92452.69
2022-08-19T12:49:55.138Z,92443.78
2022-08-19T12:53:39.252Z,92450.13
2022-08-19T12:56:11.474Z,92440.88
2022-08-19T12:58:48.929Z,92445.69
2022-08-19T13:01:22.966Z,92439.75
2022-08-19T13:03:54.829Z,92437.94
2022-08-19T13:06:24.373Z,92442.31
2022-08-19T13:08:59.693Z,92433.59
2022-08-19T13:11:33.719Z,92428.25
2022-08-19T13:14:05.098Z,92422.13
2022-08-19T13:16:34.923Z,92424.25
2022-08-19T13:19:06.460Z,92435.34
2022-08-19T13:21:36.591Z,92433.34
2022-08-19T13:24:09.942Z,92430.03
2022-08-19T13:26:39.913Z,92434.97
2022-08-19T13:29:26.963Z,92431.81
2022-08-19T13:32:13.858Z,92430.56
2022-08-19T13:34:49.213Z,92429.78
2022-08-19T13:37:39.587Z,92431.53
2022-08-19T13:40:18.312Z,92420.63
2022-08-19T13:42:50.543Z,92426.19
2022-08-19T13:45:23.484Z,92428.28
2022-08-19T13:47:59.143Z,92425.25
2022-08-19T13:50:33.423Z,92429.34
2022-08-19T13:53:05.612Z,92420.13
2022-08-19T13:55:37.380Z,92422.72
2022-08-19T13:58:07.741Z,92416.78
2022-08-19T14:00:40.661Z,92414.16
2022-08-19T14:03:10.863Z,92410.16
2022-08-19T14:05:41.023Z,92410.38
2022-08-19T14:08:11.441Z,92417.59
2022-08-19T14:10:45.570Z,92422.44
2022-08-19T14:13:21.514Z,92418.06
2022-08-19T14:15:51.562Z,92418.06
2022-08-19T14:18:22.821Z,92419.22
2022-08-19T14:20:57.959Z,92429.66
2022-08-19T14:23:28.532Z,92421.69
2022-08-19T14:26:08.323Z,92428.38
2022-08-19T14:28:38.460Z,92422.66
2022-08-19T14:31:08.830Z,92426.59
2022-08-19T14:33:39.180Z,92427.31
2022-08-19T14:36:10.213Z,92423.41
2022-08-19T14:38:40.702Z,92427.09
2022-08-19T14:41:20.625Z,92429.44
2022-08-19T14:43:53.846Z,92421.28
2022-08-19T14:46:29.539Z,92426.09
2022-08-19T14:49:00.379Z,92421.34
2022-08-19T14:51:30.784Z,92421.25
2022-08-19T14:54:01.003Z,92432.84
2022-08-19T14:56:33.870Z,92425.75
2022-08-19T14:59:03.885Z,92425.53
2022-08-19T15:01:33.790Z,92426.78
2022-08-19T15:04:03.948Z,92419.56
2022-08-19T15:06:34.239Z,92416.31
2022-08-19T15:09:05.065Z,92422.19
2022-08-19T15:11:36.864Z,92420.44
2022-08-19T15:14:08.303Z,92414.41
2022-08-19T15:16:42.123Z,92412.41
2022-08-19T15:19:13.142Z,92406.09
2022-08-19T15:21:43.020Z,92416.41
2022-08-19T15:24:13.061Z,92411.81
2022-08-19T15:26:46.243Z,92409.94
2022-08-19T15:29:17.083Z,92407.59
2022-08-19T15:31:47.323Z,92402.22
2022-08-19T15:34:19.284Z,92405.13
2022-08-19T15:36:49.196Z,92405.38
2022-08-19T15:39:19.780Z,92401.97
2022-08-19T15:41:51.665Z,92406.75
2022-08-19T15:44:23.562Z,92400.22
2022-08-19T15:46:53.690Z,92406.19
2022-08-19T15:49:24.360Z,92395.44
2022-08-19T15:53:42.363Z,92404.69
2022-08-19T15:56:13.643Z,92404.56
2022-08-19T15:59:00.559Z,92399.56
2022-08-19T16:01:48.250Z,92402.97
2022-08-19T16:04:36.911Z,92401.34
2022-08-19T16:07:08.870Z,92405.19
2022-08-19T16:09:40.383Z,92405.53
2022-08-19T16:12:11.155Z,92397.47
2022-08-19T16:14:41.161Z,92394.69
2022-08-19T16:17:13.023Z,92396.09
2022-08-19T16:19:43.031Z,92402.66
2022-08-19T16:22:12.811Z,92396.09
2022-08-19T16:24:44.363Z,92399.50
2022-08-19T16:27:14.182Z,92401.84
2022-08-19T16:29:44.083Z,92398.78
2022-08-19T16:32:14.842Z,92396.69
2022-08-19T16:34:44.923Z,92402.31
2022-08-19T16:37:15.344Z,92403.38
2022-08-19T16:39:47.285Z,92397.00
2022-08-19T16:42:17.903Z,92402.03
2022-08-19T16:44:49.140Z,92401.34
2022-08-19T16:47:19.068Z,92407.41
2022-08-19T16:49:54.254Z,92413.69
2022-08-19T16:52:26.600Z,92413.09
2022-08-19T16:54:58.461Z,92406.31
2022-08-19T16:57:28.340Z,92415.66
2022-08-19T16:59:58.144Z,92412.38
2022-08-19T17:02:29.732Z,92409.34
2022-08-19T17:05:01.220Z,92410.84
2022-08-19T17:07:33.097Z,92418.19
2022-08-19T17:10:07.064Z,92417.38
2022-08-19T17:12:37.969Z,92411.16
2022-08-19T17:15:09.982Z,92422.25
2022-08-19T17:17:39.924Z,92419.88
2022-08-19T17:20:11.104Z,92423.81
2022-08-19T17:22:40.856Z,92430.09
2022-08-19T17:25:12.574Z,92433.47
2022-08-19T17:27:41.931Z,92434.47
2022-08-19T17:30:12.753Z,92429.00
2022-08-19T17:32:42.621Z,92430.47
2022-08-19T17:35:23.941Z,92429.09
2022-08-19T17:37:54.278Z,92438.41
2022-08-19T17:40:29.216Z,92439.69
2022-08-19T17:42:59.989Z,92436.03
2022-08-19T17:45:30.600Z,92446.97
2022-08-19T17:48:01.200Z,92449.22
2022-08-19T17:50:32.011Z,92447.50
2022-08-19T17:53:02.379Z,92454.56
2022-08-19T17:55:34.568Z,92461.00
2022-08-19T17:58:05.700Z,92470.63
2022-08-19T18:00:53.758Z,92472.16
2022-08-19T18:03:23.841Z,92474.41
2022-08-19T18:05:53.843Z,92474.78
2022-08-19T18:08:23.826Z,92479.47
2022-08-19T18:10:55.125Z,92477.09
2022-08-19T18:13:25.138Z,92481.88
2022-08-19T18:15:55.064Z,92477.78
2022-08-19T18:18:25.723Z,92489.97
2022-08-19T18:20:55.925Z,92488.16
2022-08-19T18:23:43.955Z,92487.19
2022-08-19T18:26:18.128Z,92493.22
2022-08-19T18:28:50.024Z,92499.44
2022-08-19T18:31:20.273Z,92504.19
2022-08-19T18:33:52.886Z,92508.03
2022-08-19T18:36:50.159Z,92502.66
2022-08-19T18:39:30.581Z,92504.69
2022-08-19T18:42:19.002Z,92504.84
2022-08-19T18:45:06.138Z,92508.03
2022-08-19T18:47:58.580Z,92514.88
2022-08-19T18:53:41.392Z,92525.41
2022-08-19T18:56:13.710Z,92517.00
2022-08-19T18:58:45.108Z,92521.53
2022-08-19T19:01:22.530Z,92523.56
2022-08-19T19:03:56.347Z,92524.94
2022-08-19T19:06:30.301Z,92526.56
2022-08-19T19:09:01.741Z,92526.59
2022-08-19T19:11:34.218Z,92523.34
2022-08-19T19:14:16.296Z,92521.50
2022-08-19T19:16:57.922Z,92532.97
2022-08-19T19:19:28.060Z,92535.00
2022-08-19T19:22:01.429Z,92517.47
2022-08-19T19:24:38.046Z,92521.53
2022-08-19T19:27:10.472Z,92525.25
2022-08-19T19:29:40.764Z,92530.19
2022-08-19T19:32:18.522Z,92528.31
2022-08-19T19:34:48.703Z,92524.59
2022-08-19T19:37:18.957Z,92527.28
2022-08-19T19:39:50.430Z,92519.66
2022-08-19T19:42:24.081Z,92523.38
2022-08-19T19:44:56.862Z,92516.41
2022-08-19T19:47:30.644Z,92517.38
2022-08-19T19:50:16.375Z,92523.63
2022-08-19T19:52:47.856Z,92517.28
2022-08-19T19:55:20.426Z,92514.59
2022-08-19T19:57:51.084Z,92520.94
2022-08-19T20:00:22.450Z,92520.81
2022-08-19T20:02:53.822Z,92516.13
2022-08-19T20:05:24.885Z,92525.38
2022-08-19T20:08:13.577Z,92535.06
2022-08-19T20:10:47.368Z,92539.34
2022-08-19T20:13:17.243Z,92536.22
2022-08-19T20:15:47.570Z,92537.84
2022-08-19T20:18:17.443Z,92531.25
2022-08-19T20:20:50.531Z,92535.50
2022-08-19T20:23:21.855Z,92534.88
2022-08-19T20:25:55.166Z,92538.47
2022-08-19T20:28:25.188Z,92544.56
2022-08-19T20:30:55.882Z,92544.88
2022-08-19T20:33:25.682Z,92548.50
2022-08-19T20:35:55.841Z,92550.06
2022-08-19T20:38:26.129Z,92546.75
2022-08-19T20:40:57.447Z,92553.69
2022-08-19T20:43:27.463Z,92562.69
2022-08-19T20:45:57.618Z,92567.94
2022-08-19T20:48:27.683Z,92568.06
2022-08-19T20:50:57.824Z,92574.78
2022-08-19T20:53:29.302Z,92573.66
2022-08-19T20:56:00.899Z,92582.03
2022-08-19T20:58:31.021Z,92577.44
2022-08-19T21:01:04.307Z,92577.34
2022-08-19T21:03:43.445Z,92581.16
2022-08-19T21:06:15.502Z,92583.75
2022-08-19T21:08:45.481Z,92572.84
2022-08-19T21:11:20.790Z,92579.56
2022-08-19T21:13:50.839Z,92584.03
2022-08-19T21:16:20.842Z,92580.97
2022-08-19T21:18:50.783Z,92583.19
2022-08-19T21:21:20.703Z,92584.56
2022-08-19T21:23:50.518Z,92580.63
2022-08-19T21:26:21.962Z,92578.88
2022-08-19T21:28:51.819Z,92573.50
2022-08-19T21:31:22.015Z,92581.84
2022-08-19T21:33:52.006Z,92578.84
2022-08-19T21:36:22.042Z,92576.13
2022-08-19T21:38:51.760Z,92588.38
2022-08-19T21:41:23.204Z,92578.72
2022-08-19T21:43:53.222Z,92584.38
2022-08-19T21:46:23.120Z,92578.59
2022-08-19T21:48:53.111Z,92574.31
2022-08-19T21:53:37.605Z,92580.63
2022-08-19T21:56:08.763Z,92579.53
2022-08-19T21:58:39.003Z,92579.53
2022-08-19T22:01:09.971Z,92584.00
2022-08-19T22:03:42.016Z,92579.03
2022-08-19T22:06:12.106Z,92578.94
2022-08-19T22:08:45.026Z,92574.16
2022-08-19T22:11:15.061Z,92574.81
2022-08-19T22:13:45.043Z,92575.84
2022-08-19T22:16:15.843Z,92580.13
2022-08-19T22:18:46.081Z,92573.00
2022-08-19T22:21:16.221Z,92572.06
2022-08-19T22:24:01.782Z,92579.94
2022-08-19T22:26:34.124Z,92581.66
2022-08-19T22:29:04.061Z,92582.53
2022-08-19T22:31:34.521Z,92577.97
2022-08-19T22:34:05.603Z,92577.97
2022-08-19T22:36:35.840Z,92576.28
2022-08-19T22:39:07.560Z,92572.53
2022-08-19T22:41:37.943Z,92567.50
2022-08-19T22:44:08.042Z,92575.66
2022-08-19T22:46:37.904Z,92570.69
2022-08-19T22:49:07.780Z,92563.09
2022-08-19T22:51:54.783Z,92562.28
2022-08-19T22:54:27.260Z,92564.31
2022-08-19T22:56:57.320Z,92562.53
2022-08-19T22:59:27.466Z,92562.06
2022-08-19T23:01:57.262Z,92556.66
2022-08-19T23:04:27.360Z,92551.06
2022-08-19T23:06:57.942Z,92556.69
2022-08-19T23:09:30.528Z,92545.97
2022-08-19T23:12:00.985Z,92553.00
2022-08-19T23:14:31.125Z,92547.22
2022-08-19T23:17:01.726Z,92547.56
2022-08-19T23:19:31.743Z,92544.44
2022-08-19T23:22:02.175Z,92546.44
2022-08-19T23:24:33.884Z,92542.03
2022-08-19T23:27:22.279Z,92548.19
2022-08-19T23:30:11.142Z,92541.25
2022-08-19T23:32:41.643Z,92541.25
2022-08-19T23:35:12.043Z,92537.56
2022-08-19T23:37:41.883Z,92539.56
2022-08-19T23:40:13.902Z,92539.78
2022-08-19T23:42:47.104Z,92535.16
2022-08-19T23:45:21.571Z,92537.13
2022-08-19T23:47:54.107Z,92535.53
2022-08-19T23:50:24.970Z,92527.25
2022-08-19T23:52:58.459Z,92533.84
2022-08-19T23:55:35.732Z,92527.25
2022-08-19T23:58:07.920Z,92525.44
